Peru, NY (12972)

11:14 AM EST on March 01, 2015 (GMT -0500)
Lake Champlain South Valcour | Change Station
CLOSE
Current Station
Personal Weather Station
Location: Peru, NY
Elevation: 92 ft
Nearby Weather Stations

Elev 92 ft 44.60 °N, 73.44 °W | Updated 9 minutes ago

Overcast
Overcast
19.8 °F
Feels Like 14 °F
N
4.2
Wind Variable Wind from SSE

Today
High -- | Low -- °F
--% Chance of Precip.
Yesterday
High -- | Low -- °F
Precip. -- in
6:32 AM 5:41 PM
Waxing Gibbous, 86% visible
Pressure 30.49 in
Visibility 10.0 miles
Clouds Overcast 7000 ft
Windchill 14 °F
Dew Point 10 °F
Humidity 65%
Rainfall 0.00 in
Snow Depth Not available.
UV 1 out of 12
Pollen .30 out of 12
Air Quality Not available.
Flu Activity Not available.
METAR KPBG 011553Z AUTO 16008KT 10SM UP OVC070 M09/M14 A3047 RMK AO2 UPB10 SLP325 P0000 T10891139

More Conditions Fewer Conditions

Pressure 30.49 in
Visibility 10.0 miles
Clouds Overcast 7000 ft
Windchill 14 °F
Dew Point 10 °F
Humidity 65%
Rainfall 0.00 in
Snow Depth Not available.
UV 1 out of 12
Pollen .30 out of 12
Air Quality Not available.
Flu Activity Not available.
METAR KPBG 011553Z AUTO 16008KT 10SM UP OVC070 M09/M14 A3047 RMK AO2 UPB10 SLP325 P0000 T10891139

More Conditions Fewer Conditions

10-Day Weather Forecast

Almanac

Astronomy

Mar. 01, 2015 Rise Set
Actual Time
Civil Twilight
Nautical Twilight
Astronomical Twilight
Moon
Length of Visible Light
Length of Day
Tomorrow will be .
, % of the Moon is Illuminated

Today's Extremes

State Highs State Lows

Community

WunderPhotos

Upload Photos

1,801,439 photos uploaded!

WunderBlogs® & News

Nearby

Air Quality

  Air Quality AQ Index Pollutant
Not available.

Snow Depth

Station Depth Elevation

Earthquake Activity

City Distance Mag. Time & Date
Minimum magnitude displayed is 2.5.

Coastal Water Temperatures

Place Temperature

Nearby Weather Stations